createdAt,value
2023-07-03T00:03:00.990Z,17.27
2023-07-03T00:06:04.150Z,17.25
2023-07-03T00:09:06.968Z,17.39
2023-07-03T00:12:12.083Z,17.42
2023-07-03T00:15:16.312Z,17.47
2023-07-03T00:18:19.385Z,17.38
2023-07-03T00:21:22.160Z,17.25
2023-07-03T00:24:25.210Z,17.12
2023-07-03T00:27:27.963Z,17.00
2023-07-03T00:30:31.338Z,17.14
2023-07-03T00:33:34.114Z,17.23
2023-07-03T00:36:37.166Z,17.13
2023-07-03T00:39:40.206Z,17.18
2023-07-03T00:42:43.380Z,17.02
2023-07-03T00:45:46.999Z,16.86
2023-07-03T00:48:51.748Z,16.87
2023-07-03T00:51:57.256Z,16.95
2023-07-03T00:55:00.350Z,17.04
2023-07-03T00:58:03.624Z,17.03
2023-07-03T01:01:35.815Z,16.94
2023-07-03T01:04:50.568Z,16.89
2023-07-03T01:07:54.959Z,16.76
2023-07-03T01:10:58.483Z,16.61
2023-07-03T01:14:03.272Z,16.73
2023-07-03T01:17:11.318Z,16.60
2023-07-03T01:20:19.355Z,16.31
2023-07-03T01:23:29.844Z,16.47
2023-07-03T01:26:34.374Z,16.40
2023-07-03T01:29:41.445Z,16.40
2023-07-03T01:32:47.989Z,16.39
2023-07-03T01:35:53.012Z,16.33
2023-07-03T01:38:56.995Z,16.34
2023-07-03T01:42:00.478Z,16.34
2023-07-03T01:45:04.277Z,16.23
2023-07-03T01:48:07.491Z,16.16
2023-07-03T01:51:14.149Z,16.10
2023-07-03T01:54:30.893Z,16.07
2023-07-03T01:57:47.950Z,16.08
2023-07-03T02:01:16.699Z,16.10
2023-07-03T02:04:47.133Z,15.76
2023-07-03T02:07:54.653Z,15.69
2023-07-03T02:10:59.174Z,15.64
2023-07-03T02:14:02.994Z,15.76
2023-07-03T02:17:07.767Z,15.73
2023-07-03T02:20:18.169Z,15.88
2023-07-03T02:23:22.983Z,15.80
2023-07-03T02:26:26.011Z,15.85
2023-07-03T02:29:29.072Z,15.84
2023-07-03T02:32:37.869Z,15.84
2023-07-03T02:35:42.786Z,15.62
2023-07-03T02:38:46.461Z,15.49
2023-07-03T02:41:49.436Z,15.56
2023-07-03T02:44:53.306Z,15.48
2023-07-03T02:47:56.148Z,15.56
2023-07-03T02:51:00.035Z,15.57
2023-07-03T02:54:05.872Z,15.55
2023-07-03T02:57:08.999Z,15.53
2023-07-03T03:00:12.692Z,15.69
2023-07-03T03:03:16.330Z,15.41
2023-07-03T03:06:19.270Z,15.27
2023-07-03T03:09:24.657Z,15.32
2023-07-03T03:12:28.229Z,15.24
2023-07-03T03:15:35.541Z,15.09
2023-07-03T03:18:38.309Z,15.13
2023-07-03T03:21:41.480Z,15.10
2023-07-03T03:24:44.998Z,15.12
2023-07-03T03:27:48.104Z,15.07
2023-07-03T03:30:51.098Z,15.14
2023-07-03T03:33:54.270Z,15.15
2023-07-03T03:36:57.735Z,15.14
2023-07-03T03:40:01.058Z,15.14
2023-07-03T03:43:04.164Z,15.16
2023-07-03T03:46:07.299Z,15.17
2023-07-03T03:49:11.973Z,15.20
2023-07-03T03:52:15.134Z,15.30
2023-07-03T03:55:18.124Z,15.30
2023-07-03T03:58:24.527Z,15.33
2023-07-03T04:01:27.646Z,15.35
2023-07-03T04:04:30.984Z,15.41
2023-07-03T04:07:33.849Z,15.42
2023-07-03T04:10:37.592Z,15.47
2023-07-03T04:13:40.434Z,15.63
2023-07-03T04:16:45.026Z,15.74
2023-07-03T04:19:47.811Z,15.79
2023-07-03T04:22:50.809Z,16.05
2023-07-03T04:25:54.366Z,16.17
2023-07-03T04:28:57.644Z,16.34
2023-07-03T04:32:00.589Z,16.44
2023-07-03T04:35:04.112Z,16.44
2023-07-03T04:38:07.264Z,16.44
2023-07-03T04:41:10.438Z,16.47
2023-07-03T04:44:13.758Z,16.52
2023-07-03T04:47:18.294Z,16.63
2023-07-03T04:50:26.552Z,16.70
2023-07-03T04:53:29.845Z,16.72
2023-07-03T04:56:35.114Z,16.89
2023-07-03T04:59:39.093Z,17.06
2023-07-03T05:02:43.087Z,17.19
2023-07-03T05:05:46.249Z,17.36
2023-07-03T05:08:49.117Z,17.52
2023-07-03T05:11:53.397Z,17.72
2023-07-03T05:14:58.330Z,17.82
2023-07-03T05:18:01.685Z,17.98
2023-07-03T05:21:07.501Z,18.09
2023-07-03T05:24:10.691Z,18.29
2023-07-03T05:27:13.404Z,18.42
2023-07-03T05:30:16.702Z,18.64
2023-07-03T05:33:19.475Z,18.87
2023-07-03T05:36:22.794Z,19.48
2023-07-03T05:39:26.290Z,19.84
2023-07-03T05:42:29.427Z,20.10
2023-07-03T05:45:32.164Z,20.39
2023-07-03T05:48:36.723Z,20.54
2023-07-03T05:51:39.613Z,20.81
2023-07-03T05:54:42.645Z,21.17
2023-07-03T05:57:45.616Z,21.14
2023-07-03T06:00:49.808Z,21.56
2023-07-03T06:03:53.061Z,21.85
2023-07-03T06:06:57.186Z,21.96
2023-07-03T06:10:00.394Z,22.25
2023-07-03T06:13:03.471Z,22.49
2023-07-03T06:16:06.758Z,22.45
2023-07-03T06:19:10.549Z,22.64
2023-07-03T06:22:13.575Z,23.30
2023-07-03T06:25:16.657Z,23.20
2023-07-03T06:28:20.278Z,23.35
2023-07-03T06:31:23.640Z,24.16
2023-07-03T06:34:27.602Z,24.02
2023-07-03T06:37:30.327Z,24.36
2023-07-03T06:40:33.606Z,24.21
2023-07-03T06:43:36.963Z,23.89
2023-07-03T06:46:40.625Z,24.17
2023-07-03T06:49:43.629Z,24.52
2023-07-03T06:52:48.713Z,24.42
2023-07-03T06:55:59.070Z,24.75
2023-07-03T06:59:02.461Z,23.93
2023-07-03T07:02:08.655Z,24.82
2023-07-03T07:05:12.592Z,24.78
2023-07-03T07:08:18.064Z,25.07
2023-07-03T07:11:39.495Z,25.63
2023-07-03T07:14:42.255Z,25.72
2023-07-03T07:17:51.955Z,25.42
2023-07-03T07:20:56.207Z,25.50
2023-07-03T07:24:12.712Z,25.64
2023-07-03T07:27:15.641Z,25.72
2023-07-03T07:30:18.912Z,25.38
2023-07-03T07:33:23.960Z,25.72
2023-07-03T07:36:27.918Z,25.75
2023-07-03T07:39:32.013Z,26.43
2023-07-03T07:42:35.773Z,26.89
2023-07-03T07:45:38.890Z,27.37
2023-07-03T07:48:42.305Z,27.63
2023-07-03T07:51:45.065Z,27.93
2023-07-03T07:54:48.611Z,28.25
2023-07-03T07:57:51.673Z,28.44
2023-07-03T08:00:56.131Z,28.21
2023-07-03T08:03:59.235Z,28.22
2023-07-03T08:07:02.102Z,28.71
2023-07-03T08:10:06.004Z,28.71
2023-07-03T08:13:09.299Z,28.26
2023-07-03T08:16:13.050Z,28.84
2023-07-03T08:19:16.106Z,28.83
2023-07-03T08:22:19.393Z,28.74
2023-07-03T08:25:22.845Z,29.00
2023-07-03T08:28:26.245Z,29.02
2023-07-03T08:31:29.492Z,29.09
2023-07-03T08:34:32.831Z,29.98
2023-07-03T08:37:35.681Z,30.02
2023-07-03T08:40:39.050Z,29.69
2023-07-03T08:43:48.592Z,30.26
2023-07-03T08:47:06.515Z,30.27
2023-07-03T08:50:28.122Z,29.98
2023-07-03T08:53:41.809Z,29.69
2023-07-03T08:56:44.755Z,29.64
2023-07-03T08:59:49.367Z,30.19
2023-07-03T09:03:48.412Z,30.38
2023-07-03T09:07:00.777Z,30.59
2023-07-03T09:10:13.148Z,30.96
2023-07-03T09:13:30.791Z,30.79
2023-07-03T09:16:34.054Z,30.61
2023-07-03T09:19:39.594Z,30.54
2023-07-03T09:22:50.754Z,30.86
2023-07-03T09:26:05.177Z,31.19
2023-07-03T09:29:08.542Z,31.49
2023-07-03T09:32:25.767Z,31.91
2023-07-03T09:35:42.368Z,32.38
2023-07-03T09:38:45.474Z,32.26
2023-07-03T09:41:48.456Z,32.44
2023-07-03T09:44:52.091Z,31.95
2023-07-03T09:47:59.734Z,32.05
2023-07-03T09:51:08.760Z,32.54
2023-07-03T09:54:24.806Z,32.08
2023-07-03T09:57:28.923Z,32.23
2023-07-03T10:00:31.880Z,31.72
2023-07-03T10:03:36.920Z,31.33
2023-07-03T10:06:41.235Z,31.16
2023-07-03T10:13:05.863Z,31.66
2023-07-03T10:16:10.485Z,31.37
2023-07-03T10:19:15.133Z,32.22
2023-07-03T10:22:20.140Z,32.25
2023-07-03T10:25:30.725Z,32.48
2023-07-03T10:28:40.086Z,32.35
2023-07-03T10:31:51.138Z,31.99
2023-07-03T10:35:11.065Z,31.59
2023-07-03T10:38:56.529Z,31.57
2023-07-03T10:42:05.437Z,31.60
2023-07-03T10:45:15.671Z,31.38
2023-07-03T10:48:28.066Z,30.76
2023-07-03T10:51:54.465Z,30.84
2023-07-03T10:55:10.029Z,30.62
2023-07-03T10:58:32.714Z,30.64
2023-07-03T11:01:51.903Z,30.63
2023-07-03T11:05:21.504Z,30.05
2023-07-03T11:09:04.898Z,30.02
2023-07-03T11:12:15.370Z,29.62
2023-07-03T11:15:35.228Z,29.67
2023-07-03T11:25:33.374Z,29.61
2023-07-03T11:28:39.331Z,29.24
2023-07-03T11:31:44.717Z,29.41
2023-07-03T11:44:19.218Z,29.11
2023-07-03T11:47:29.415Z,28.76
2023-07-03T11:50:35.411Z,28.67
2023-07-03T11:53:49.082Z,28.75
2023-07-03T11:56:57.575Z,28.91
2023-07-03T12:00:24.161Z,28.91
2023-07-03T12:04:04.222Z,28.95
2023-07-03T12:07:07.371Z,29.04
2023-07-03T12:10:30.814Z,28.96
2023-07-03T12:13:43.008Z,28.95
2023-07-03T12:16:49.125Z,28.89
2023-07-03T12:19:56.594Z,29.04
2023-07-03T12:23:00.873Z,28.86
2023-07-03T12:26:17.012Z,28.61
2023-07-03T12:29:23.249Z,28.92
2023-07-03T12:32:35.824Z,29.13
2023-07-03T12:35:44.458Z,29.24
2023-07-03T12:38:47.598Z,29.31
2023-07-03T12:41:50.891Z,29.46
2023-07-03T12:44:54.150Z,29.34
2023-07-03T12:48:04.270Z,29.32
2023-07-03T12:51:07.842Z,29.32
2023-07-03T12:54:13.693Z,29.36
2023-07-03T12:57:16.833Z,29.21
2023-07-03T13:00:26.572Z,28.68
2023-07-03T13:03:29.629Z,28.86
2023-07-03T13:06:34.724Z,28.76
2023-07-03T13:09:44.246Z,29.06
2023-07-03T13:13:07.459Z,29.75
2023-07-03T13:16:16.215Z,30.02
2023-07-03T13:19:49.774Z,29.99
2023-07-03T13:22:56.393Z,29.96
2023-07-03T13:26:01.558Z,30.30
2023-07-03T13:29:07.030Z,30.21
2023-07-03T13:32:18.852Z,30.62
2023-07-03T13:35:31.287Z,30.80
2023-07-03T13:38:34.376Z,30.49
2023-07-03T13:41:39.133Z,30.14
2023-07-03T13:44:42.191Z,29.83
2023-07-03T13:47:45.164Z,29.51
2023-07-03T13:50:50.895Z,29.35
2023-07-03T13:54:03.188Z,29.37
2023-07-03T13:57:14.127Z,29.20
2023-07-03T14:00:17.973Z,29.18
2023-07-03T14:03:21.888Z,28.90
2023-07-03T14:06:25.349Z,28.65
2023-07-03T14:09:28.828Z,28.71
2023-07-03T14:12:31.552Z,28.52
2023-07-03T14:15:36.981Z,28.46
2023-07-03T14:18:40.273Z,28.49
2023-07-03T14:21:44.104Z,28.58
2023-07-03T14:24:46.906Z,28.43
2023-07-03T14:27:50.873Z,28.58
2023-07-03T14:30:54.315Z,28.65
2023-07-03T14:33:57.514Z,28.46
2023-07-03T14:37:04.656Z,28.31
2023-07-03T14:40:08.458Z,27.88
2023-07-03T14:43:11.513Z,27.74
2023-07-03T14:46:14.717Z,27.67
2023-07-03T14:49:17.610Z,27.63
2023-07-03T14:52:21.358Z,27.36
2023-07-03T14:55:24.148Z,27.16
2023-07-03T14:58:27.486Z,27.04
2023-07-03T15:01:30.483Z,26.93
2023-07-03T15:04:34.155Z,26.81
2023-07-03T15:07:37.388Z,26.75
2023-07-03T15:10:40.528Z,26.67
2023-07-03T15:13:43.751Z,26.60
2023-07-03T15:16:47.241Z,26.47
2023-07-03T15:19:50.092Z,26.65
2023-07-03T15:22:54.042Z,26.73
2023-07-03T15:26:07.319Z,26.54
2023-07-03T15:29:10.358Z,26.62
2023-07-03T15:32:13.686Z,26.66
2023-07-03T15:35:16.880Z,26.65
2023-07-03T15:38:20.033Z,26.65
2023-07-03T15:41:23.037Z,26.69
2023-07-03T15:44:25.786Z,26.63
2023-07-03T15:47:29.096Z,26.75
2023-07-03T15:50:31.902Z,26.71
2023-07-03T15:53:36.140Z,26.76
2023-07-03T15:56:39.530Z,26.94
2023-07-03T15:59:43.746Z,27.01
2023-07-03T16:02:46.941Z,27.28
2023-07-03T16:06:04.908Z,27.32
2023-07-03T16:09:08.188Z,27.30
2023-07-03T16:12:11.233Z,27.00
2023-07-03T16:15:14.127Z,26.90
2023-07-03T16:18:17.226Z,26.78
2023-07-03T16:21:22.578Z,26.60
2023-07-03T16:24:26.820Z,26.37
2023-07-03T16:27:29.572Z,26.30
2023-07-03T16:30:32.803Z,26.27
2023-07-03T16:33:38.930Z,26.10
2023-07-03T16:36:42.142Z,26.14
2023-07-03T16:39:45.371Z,26.17
2023-07-03T16:42:48.762Z,26.16
2023-07-03T16:45:54.202Z,26.14
2023-07-03T16:48:59.381Z,26.13
2023-07-03T16:52:02.509Z,26.16
2023-07-03T16:55:06.085Z,26.14
2023-07-03T16:58:09.426Z,26.04
2023-07-03T17:01:16.529Z,25.88
2023-07-03T17:04:19.582Z,25.77
2023-07-03T17:07:23.923Z,25.72
2023-07-03T17:10:27.339Z,25.68
2023-07-03T17:13:32.183Z,25.67
2023-07-03T17:16:36.519Z,25.58
2023-07-03T17:19:39.707Z,25.62
2023-07-03T17:22:42.842Z,25.52
2023-07-03T17:25:48.861Z,25.39
2023-07-03T17:28:52.375Z,25.34
2023-07-03T17:31:56.268Z,25.21
2023-07-03T17:34:59.959Z,25.19
2023-07-03T17:38:04.504Z,25.16
2023-07-03T17:41:08.567Z,25.11
2023-07-03T17:44:13.459Z,25.00
2023-07-03T17:47:17.215Z,25.01
2023-07-03T17:50:20.649Z,24.98
2023-07-03T17:53:24.798Z,25.00
2023-07-03T17:56:29.442Z,25.02
2023-07-03T17:59:32.908Z,25.01
2023-07-03T18:02:36.484Z,24.96
2023-07-03T18:05:41.233Z,24.89
2023-07-03T18:08:44.867Z,24.88
2023-07-03T18:11:49.631Z,24.85
2023-07-03T18:14:53.984Z,24.78
2023-07-03T18:17:58.606Z,24.76
2023-07-03T18:21:02.151Z,24.68
2023-07-03T18:24:06.854Z,24.60
2023-07-03T18:27:10.709Z,24.46
2023-07-03T18:30:15.966Z,24.37
2023-07-03T18:33:19.775Z,24.33
2023-07-03T18:36:24.712Z,24.29
2023-07-03T18:39:28.447Z,24.17
2023-07-03T18:42:32.656Z,24.12
2023-07-03T18:45:36.134Z,24.01
2023-07-03T18:48:40.676Z,23.87
2023-07-03T18:51:43.808Z,23.78
2023-07-03T18:54:47.053Z,23.68
2023-07-03T18:57:50.600Z,23.64
2023-07-03T19:00:53.659Z,23.57
2023-07-03T19:03:58.616Z,23.48
2023-07-03T19:07:02.524Z,23.46
2023-07-03T19:10:17.544Z,23.38
2023-07-03T19:13:23.031Z,23.33
2023-07-03T19:16:26.205Z,23.25
2023-07-03T19:19:30.059Z,23.18
2023-07-03T19:22:34.120Z,23.23
2023-07-03T19:25:38.243Z,23.17
2023-07-03T19:28:45.442Z,23.15
2023-07-03T19:31:52.008Z,23.12
2023-07-03T19:34:55.019Z,23.11
2023-07-03T19:38:00.662Z,23.00
2023-07-03T19:41:05.433Z,23.02
2023-07-03T19:44:10.209Z,22.92
2023-07-03T19:47:13.935Z,22.65
2023-07-03T19:50:18.757Z,22.67
2023-07-03T19:53:22.282Z,22.85
2023-07-03T19:56:26.366Z,22.93
2023-07-03T19:59:30.056Z,22.85
2023-07-03T20:02:35.858Z,22.81
2023-07-03T20:05:43.088Z,22.77
2023-07-03T20:08:50.651Z,22.88
2023-07-03T20:11:55.233Z,22.93
2023-07-03T20:14:59.494Z,22.89
2023-07-03T20:18:03.965Z,22.86
2023-07-03T20:21:11.970Z,23.05
2023-07-03T20:24:16.798Z,22.95
2023-07-03T20:27:20.009Z,22.68
2023-07-03T20:30:23.928Z,22.76
2023-07-03T20:33:27.029Z,22.90
2023-07-03T20:36:31.160Z,23.03
2023-07-03T20:39:36.092Z,22.94
2023-07-03T20:42:39.445Z,23.03
2023-07-03T20:45:43.068Z,23.05
2023-07-03T20:48:55.561Z,22.96
2023-07-03T20:52:00.485Z,23.08
2023-07-03T20:55:13.504Z,23.01
2023-07-03T20:58:16.494Z,22.95
2023-07-03T21:01:24.112Z,22.86
2023-07-03T21:04:26.949Z,22.76
2023-07-03T21:07:30.326Z,22.82
2023-07-03T21:10:33.191Z,22.92
2023-07-03T21:13:38.909Z,22.78
2023-07-03T21:16:42.443Z,22.64
2023-07-03T21:19:45.672Z,22.47
2023-07-03T21:22:48.893Z,22.38
2023-07-03T21:25:52.336Z,22.42
2023-07-03T21:28:55.815Z,22.54
2023-07-03T21:31:59.119Z,22.64
2023-07-03T21:35:02.161Z,22.50
2023-07-03T21:38:05.332Z,22.45
2023-07-03T21:41:10.161Z,22.49
2023-07-03T21:44:16.923Z,22.56
2023-07-03T21:47:19.878Z,22.63
2023-07-03T21:50:23.723Z,22.72
2023-07-03T21:53:27.524Z,22.85
2023-07-03T21:56:32.028Z,22.85
2023-07-03T21:59:34.879Z,22.80
2023-07-03T22:02:38.145Z,22.80
2023-07-03T22:05:41.337Z,22.90
2023-07-03T22:08:44.193Z,22.94
2023-07-03T22:11:48.336Z,23.06
2023-07-03T22:14:51.399Z,22.74
2023-07-03T22:17:54.597Z,22.61
2023-07-03T22:20:57.368Z,22.76
2023-07-03T22:24:00.945Z,22.68
2023-07-03T22:27:05.441Z,22.82
2023-07-03T22:30:09.233Z,22.80
2023-07-03T22:33:11.943Z,22.70
2023-07-03T22:36:15.437Z,22.62
2023-07-03T22:39:18.420Z,22.68
2023-07-03T22:42:21.641Z,22.59
2023-07-03T22:45:24.615Z,22.67
2023-07-03T22:48:27.747Z,22.63
2023-07-03T22:51:32.253Z,22.48
2023-07-03T22:54:35.710Z,22.62
2023-07-03T22:57:38.569Z,22.57
2023-07-03T23:00:41.723Z,22.58
2023-07-03T23:03:44.769Z,22.57
2023-07-03T23:06:48.576Z,22.44
2023-07-03T23:09:51.829Z,22.30
2023-07-03T23:12:54.927Z,22.49
2023-07-03T23:16:05.915Z,22.39
2023-07-03T23:19:09.767Z,22.43
2023-07-03T23:22:12.550Z,22.38
2023-07-03T23:25:15.747Z,22.25
2023-07-03T23:28:18.784Z,22.19
2023-07-03T23:31:21.940Z,22.21
2023-07-03T23:34:24.954Z,22.21
2023-07-03T23:37:28.026Z,22.05
2023-07-03T23:40:32.210Z,22.02
2023-07-03T23:43:36.549Z,21.96
2023-07-03T23:46:39.443Z,21.98
2023-07-03T23:49:43.122Z,21.95
2023-07-03T23:52:47.399Z,21.66
2023-07-03T23:55:51.845Z,21.65
2023-07-03T23:58:54.647Z,21.55
